Spijkenisse, Netherlands
Current Conditions -  °F | °C
As of 9:25 AM on Friday 24 Oct 2014 (Local Time) from EHRD Reporting Station
Rain Showers Rain Showers  
Wind Chill: 54°   Ceiling: 4200
Heat Index: 54°   Visibility: 5mi
Dew Point: 50°   Wind: 13mph
Humidity: 88%   Direction: 180°S
Pressure: 30.06"   Gusts: NA
Location:  51.85°N, 4.33°E
Report Text: EHRD 240725Z AUTO 18011KT 150V210 8000 -SHRA FEW027 SCT030OVC042 12/10 Q1018 TEMPO 4000
Loading
Personal Weather Stations






























Interactive Weather Map
Tropical Storm Tracking
New forecast layout! Learn more

10-Day Weather Forecast

Advertisements
Track Severe Weather on mobile